sensor_id;sensor_type;location;lat;lon;timestamp;temperature;humidity
10245;DHT22;5167;52.164;10.530;2022-09-27T00:01:00;14.20;25.80
10245;DHT22;5167;52.164;10.530;2022-09-27T00:03:27;14.10;25.90
10245;DHT22;5167;52.164;10.530;2022-09-27T00:06:10;14.20;26.30
10245;DHT22;5167;52.164;10.530;2022-09-27T00:08:36;14.20;26.70
10245;DHT22;5167;52.164;10.530;2022-09-27T00:11:29;14.20;26.20
10245;DHT22;5167;52.164;10.530;2022-09-27T00:13:57;14.20;25.80
10245;DHT22;5167;52.164;10.530;2022-09-27T00:16:26;14.10;25.00
10245;DHT22;5167;52.164;10.530;2022-09-27T00:18:52;14.10;25.50
10245;DHT22;5167;52.164;10.530;2022-09-27T00:21:18;14.10;25.60
10245;DHT22;5167;52.164;10.530;2022-09-27T00:23:44;14.10;26.20
10245;DHT22;5167;52.164;10.530;2022-09-27T00:26:11;14.10;26.00
10245;DHT22;5167;52.164;10.530;2022-09-27T00:28:37;14.10;25.80
10245;DHT22;5167;52.164;10.530;2022-09-27T00:31:03;14.10;26.10
10245;DHT22;5167;52.164;10.530;2022-09-27T00:33:29;14.10;26.60
10245;DHT22;5167;52.164;10.530;2022-09-27T00:36:03;14.10;26.50
10245;DHT22;5167;52.164;10.530;2022-09-27T00:38:28;14.00;26.70
10245;DHT22;5167;52.164;10.530;2022-09-27T00:40:54;14.10;26.80
10245;DHT22;5167;52.164;10.530;2022-09-27T00:43:22;14.00;26.80
10245;DHT22;5167;52.164;10.530;2022-09-27T00:45:55;14.00;26.90
10245;DHT22;5167;52.164;10.530;2022-09-27T00:48:25;14.00;26.60
10245;DHT22;5167;52.164;10.530;2022-09-27T00:50:57;14.00;27.50
10245;DHT22;5167;52.164;10.530;2022-09-27T00:53:31;14.10;26.80
10245;DHT22;5167;52.164;10.530;2022-09-27T00:56:00;14.10;26.90
10245;DHT22;5167;52.164;10.530;2022-09-27T00:58:35;14.10;26.60
10245;DHT22;5167;52.164;10.530;2022-09-27T01:01:06;14.10;26.80
10245;DHT22;5167;52.164;10.530;2022-09-27T01:03:55;14.10;26.90
10245;DHT22;5167;52.164;10.530;2022-09-27T01:06:22;14.10;26.60
10245;DHT22;5167;52.164;10.530;2022-09-27T01:08:48;14.10;27.10
10245;DHT22;5167;52.164;10.530;2022-09-27T01:11:43;14.10;27.10
10245;DHT22;5167;52.164;10.530;2022-09-27T01:31:14;14.20;27.10
10245;DHT22;5167;52.164;10.530;2022-09-27T01:39:38;14.20;27.60
10245;DHT22;5167;52.164;10.530;2022-09-27T01:45:02;14.10;27.80
10245;DHT22;5167;52.164;10.530;2022-09-27T01:47:39;14.10;28.10
10245;DHT22;5167;52.164;10.530;2022-09-27T01:53:04;14.00;28.80
10245;DHT22;5167;52.164;10.530;2022-09-27T01:55:35;14.00;28.40
10245;DHT22;5167;52.164;10.530;2022-09-27T02:01:13;14.10;29.30
10245;DHT22;5167;52.164;10.530;2022-09-27T02:03:43;14.10;29.00
10245;DHT22;5167;52.164;10.530;2022-09-27T02:06:14;14.10;29.60
10245;DHT22;5167;52.164;10.530;2022-09-27T02:11:14;14.10;29.30
10245;DHT22;5167;52.164;10.530;2022-09-27T02:13:47;14.10;29.80
10245;DHT22;5167;52.164;10.530;2022-09-27T02:21:58;14.20;29.60
10245;DHT22;5167;52.164;10.530;2022-09-27T02:24:34;14.10;29.20
10245;DHT22;5167;52.164;10.530;2022-09-27T02:27:11;14.10;29.30
10245;DHT22;5167;52.164;10.530;2022-09-27T02:29:46;14.00;29.50
10245;DHT22;5167;52.164;10.530;2022-09-27T02:32:15;14.10;29.40
10245;DHT22;5167;52.164;10.530;2022-09-27T02:34:42;14.10;29.80
10245;DHT22;5167;52.164;10.530;2022-09-27T02:37:09;14.10;29.80
10245;DHT22;5167;52.164;10.530;2022-09-27T02:39:35;14.00;29.70
10245;DHT22;5167;52.164;10.530;2022-09-27T02:42:01;13.90;29.90
10245;DHT22;5167;52.164;10.530;2022-09-27T02:44:27;14.00;29.80
10245;DHT22;5167;52.164;10.530;2022-09-27T02:47:17;14.00;30.00
10245;DHT22;5167;52.164;10.530;2022-09-27T02:55:18;13.90;29.70
10245;DHT22;5167;52.164;10.530;2022-09-27T03:00:47;13.90;30.30
10245;DHT22;5167;52.164;10.530;2022-09-27T03:03:19;13.90;30.70
10245;DHT22;5167;52.164;10.530;2022-09-27T03:06:13;13.90;30.50
10245;DHT22;5167;52.164;10.530;2022-09-27T03:08:40;13.90;30.50
10245;DHT22;5167;52.164;10.530;2022-09-27T03:11:07;13.80;31.20
10245;DHT22;5167;52.164;10.530;2022-09-27T03:13:33;13.80;31.20
10245;DHT22;5167;52.164;10.530;2022-09-27T03:16:01;13.90;31.80
10245;DHT22;5167;52.164;10.530;2022-09-27T03:18:26;13.80;32.10
10245;DHT22;5167;52.164;10.530;2022-09-27T03:20:52;13.90;32.80
10245;DHT22;5167;52.164;10.530;2022-09-27T03:23:18;13.90;32.50
10245;DHT22;5167;52.164;10.530;2022-09-27T03:25:47;13.80;33.30
10245;DHT22;5167;52.164;10.530;2022-09-27T03:28:13;13.90;33.20
10245;DHT22;5167;52.164;10.530;2022-09-27T03:30:38;13.80;33.00
10245;DHT22;5167;52.164;10.530;2022-09-27T03:33:04;13.80;33.90
10245;DHT22;5167;52.164;10.530;2022-09-27T03:35:30;13.80;34.30
10245;DHT22;5167;52.164;10.530;2022-09-27T03:37:55;13.80;34.60
10245;DHT22;5167;52.164;10.530;2022-09-27T03:40:21;13.80;34.30
10245;DHT22;5167;52.164;10.530;2022-09-27T03:42:46;13.70;35.80
10245;DHT22;5167;52.164;10.530;2022-09-27T03:45:14;13.80;35.50
10245;DHT22;5167;52.164;10.530;2022-09-27T03:47:40;13.70;36.50
10245;DHT22;5167;52.164;10.530;2022-09-27T03:50:07;13.70;35.60
10245;DHT22;5167;52.164;10.530;2022-09-27T03:52:33;13.80;35.60
10245;DHT22;5167;52.164;10.530;2022-09-27T03:54:59;13.70;34.70
10245;DHT22;5167;52.164;10.530;2022-09-27T03:57:25;13.70;35.70
10245;DHT22;5167;52.164;10.530;2022-09-27T03:59:50;13.70;36.30
10245;DHT22;5167;52.164;10.530;2022-09-27T04:02:16;13.70;36.10
10245;DHT22;5167;52.164;10.530;2022-09-27T04:04:41;13.70;36.40
10245;DHT22;5167;52.164;10.530;2022-09-27T04:07:07;13.70;36.10
10245;DHT22;5167;52.164;10.530;2022-09-27T04:09:34;13.70;36.50
10245;DHT22;5167;52.164;10.530;2022-09-27T04:12:00;13.70;36.90
10245;DHT22;5167;52.164;10.530;2022-09-27T04:14:26;13.70;36.50
10245;DHT22;5167;52.164;10.530;2022-09-27T04:16:52;13.70;35.50
10245;DHT22;5167;52.164;10.530;2022-09-27T04:19:17;13.80;35.00
10245;DHT22;5167;52.164;10.530;2022-09-27T04:21:43;13.70;36.50
10245;DHT22;5167;52.164;10.530;2022-09-27T04:24:08;13.70;36.50
10245;DHT22;5167;52.164;10.530;2022-09-27T04:26:36;13.70;37.10
10245;DHT22;5167;52.164;10.530;2022-09-27T04:29:02;13.70;36.90
10245;DHT22;5167;52.164;10.530;2022-09-27T04:31:28;13.70;37.50
10245;DHT22;5167;52.164;10.530;2022-09-27T04:33:54;13.60;37.30
10245;DHT22;5167;52.164;10.530;2022-09-27T04:36:21;13.70;36.30
10245;DHT22;5167;52.164;10.530;2022-09-27T04:38:58;13.70;37.70
10245;DHT22;5167;52.164;10.530;2022-09-27T04:41:26;13.60;37.50
10245;DHT22;5167;52.164;10.530;2022-09-27T04:43:53;13.60;37.90
10245;DHT22;5167;52.164;10.530;2022-09-27T04:46:19;13.60;38.00
10245;DHT22;5167;52.164;10.530;2022-09-27T04:48:46;13.60;37.50
10245;DHT22;5167;52.164;10.530;2022-09-27T04:51:12;13.70;38.50
10245;DHT22;5167;52.164;10.530;2022-09-27T04:53:40;13.70;38.20
10245;DHT22;5167;52.164;10.530;2022-09-27T04:56:06;13.60;37.80
10245;DHT22;5167;52.164;10.530;2022-09-27T04:58:33;13.70;37.70
10245;DHT22;5167;52.164;10.530;2022-09-27T05:00:59;13.60;38.80
10245;DHT22;5167;52.164;10.530;2022-09-27T05:03:26;13.60;37.10
10245;DHT22;5167;52.164;10.530;2022-09-27T05:05:52;13.70;37.80
10245;DHT22;5167;52.164;10.530;2022-09-27T05:08:18;13.60;37.50
10245;DHT22;5167;52.164;10.530;2022-09-27T05:10:45;13.60;37.30
10245;DHT22;5167;52.164;10.530;2022-09-27T05:13:12;13.70;39.60
10245;DHT22;5167;52.164;10.530;2022-09-27T05:15:37;13.60;39.60
10245;DHT22;5167;52.164;10.530;2022-09-27T05:18:04;13.50;39.90
10245;DHT22;5167;52.164;10.530;2022-09-27T05:20:31;13.50;39.80
10245;DHT22;5167;52.164;10.530;2022-09-27T05:22:57;13.50;40.00
10245;DHT22;5167;52.164;10.530;2022-09-27T05:25:22;13.60;40.00
10245;DHT22;5167;52.164;10.530;2022-09-27T05:27:49;13.50;41.30
10245;DHT22;5167;52.164;10.530;2022-09-27T05:30:15;13.60;41.00
10245;DHT22;5167;52.164;10.530;2022-09-27T05:32:44;13.50;40.60
10245;DHT22;5167;52.164;10.530;2022-09-27T05:35:13;13.50;41.70
10245;DHT22;5167;52.164;10.530;2022-09-27T05:37:42;13.50;43.00
10245;DHT22;5167;52.164;10.530;2022-09-27T05:40:08;13.50;43.80
10245;DHT22;5167;52.164;10.530;2022-09-27T05:42:34;13.50;42.50
10245;DHT22;5167;52.164;10.530;2022-09-27T05:45:03;13.50;44.60
10245;DHT22;5167;52.164;10.530;2022-09-27T05:47:29;13.50;44.40
10245;DHT22;5167;52.164;10.530;2022-09-27T05:49:54;13.40;45.60
10245;DHT22;5167;52.164;10.530;2022-09-27T05:52:20;13.40;46.20
10245;DHT22;5167;52.164;10.530;2022-09-27T05:54:46;13.40;46.40
10245;DHT22;5167;52.164;10.530;2022-09-27T05:57:12;13.40;47.50
10245;DHT22;5167;52.164;10.530;2022-09-27T05:59:37;13.40;47.40
10245;DHT22;5167;52.164;10.530;2022-09-27T06:02:03;13.50;47.50
10245;DHT22;5167;52.164;10.530;2022-09-27T06:04:28;13.50;47.10
10245;DHT22;5167;52.164;10.530;2022-09-27T06:06:54;13.50;47.60
10245;DHT22;5167;52.164;10.530;2022-09-27T06:09:19;13.60;49.20
10245;DHT22;5167;52.164;10.530;2022-09-27T06:11:45;13.60;48.90
10245;DHT22;5167;52.164;10.530;2022-09-27T06:14:12;13.50;48.80
10245;DHT22;5167;52.164;10.530;2022-09-27T06:16:38;13.60;49.20
10245;DHT22;5167;52.164;10.530;2022-09-27T06:19:03;13.50;49.20
10245;DHT22;5167;52.164;10.530;2022-09-27T06:21:29;13.40;49.30
10245;DHT22;5167;52.164;10.530;2022-09-27T06:23:57;13.40;49.50
10245;DHT22;5167;52.164;10.530;2022-09-27T06:26:24;13.50;50.10
10245;DHT22;5167;52.164;10.530;2022-09-27T06:28:52;13.40;50.20
10245;DHT22;5167;52.164;10.530;2022-09-27T06:31:17;13.50;49.70
10245;DHT22;5167;52.164;10.530;2022-09-27T06:33:43;13.40;50.80
10245;DHT22;5167;52.164;10.530;2022-09-27T06:36:09;13.40;49.60
10245;DHT22;5167;52.164;10.530;2022-09-27T06:38:35;13.40;49.90
10245;DHT22;5167;52.164;10.530;2022-09-27T06:41:01;13.50;49.40
10245;DHT22;5167;52.164;10.530;2022-09-27T06:43:28;13.50;49.60
10245;DHT22;5167;52.164;10.530;2022-09-27T06:45:54;13.40;48.80
10245;DHT22;5167;52.164;10.530;2022-09-27T06:48:20;13.50;49.30
10245;DHT22;5167;52.164;10.530;2022-09-27T06:50:46;13.40;48.50
10245;DHT22;5167;52.164;10.530;2022-09-27T06:53:14;13.40;48.90
10245;DHT22;5167;52.164;10.530;2022-09-27T06:55:41;13.40;49.50
10245;DHT22;5167;52.164;10.530;2022-09-27T06:58:09;13.40;49.90
10245;DHT22;5167;52.164;10.530;2022-09-27T07:00:53;13.40;48.90
10245;DHT22;5167;52.164;10.530;2022-09-27T07:03:20;13.40;50.60
10245;DHT22;5167;52.164;10.530;2022-09-27T07:06:04;13.40;51.30
10245;DHT22;5167;52.164;10.530;2022-09-27T07:08:30;13.30;51.20
10245;DHT22;5167;52.164;10.530;2022-09-27T07:11:01;13.40;51.70
10245;DHT22;5167;52.164;10.530;2022-09-27T07:13:28;13.40;51.90
10245;DHT22;5167;52.164;10.530;2022-09-27T07:15:59;13.30;52.00
10245;DHT22;5167;52.164;10.530;2022-09-27T07:18:25;13.30;53.40
10245;DHT22;5167;52.164;10.530;2022-09-27T07:20:51;13.30;53.20
10245;DHT22;5167;52.164;10.530;2022-09-27T07:23:17;13.30;54.00
10245;DHT22;5167;52.164;10.530;2022-09-27T07:25:43;13.30;54.60
10245;DHT22;5167;52.164;10.530;2022-09-27T07:28:15;13.30;55.00
10245;DHT22;5167;52.164;10.530;2022-09-27T07:30:41;13.30;55.00
10245;DHT22;5167;52.164;10.530;2022-09-27T07:33:07;13.20;56.00
10245;DHT22;5167;52.164;10.530;2022-09-27T07:35:34;13.30;57.10
10245;DHT22;5167;52.164;10.530;2022-09-27T07:38:04;13.30;57.10
10245;DHT22;5167;52.164;10.530;2022-09-27T07:40:34;13.20;57.40
10245;DHT22;5167;52.164;10.530;2022-09-27T07:43:00;13.20;57.50
10245;DHT22;5167;52.164;10.530;2022-09-27T07:45:26;13.20;59.40
10245;DHT22;5167;52.164;10.530;2022-09-27T07:47:52;13.20;59.60
10245;DHT22;5167;52.164;10.530;2022-09-27T07:50:18;13.20;62.60
10245;DHT22;5167;52.164;10.530;2022-09-27T07:52:46;13.20;63.40
10245;DHT22;5167;52.164;10.530;2022-09-27T07:55:16;13.30;64.50
10245;DHT22;5167;52.164;10.530;2022-09-27T07:57:42;13.20;65.80
10245;DHT22;5167;52.164;10.530;2022-09-27T08:00:13;13.20;66.50
10245;DHT22;5167;52.164;10.530;2022-09-27T08:02:40;13.20;67.20
10245;DHT22;5167;52.164;10.530;2022-09-27T08:05:07;13.30;68.40
10245;DHT22;5167;52.164;10.530;2022-09-27T08:07:33;13.30;68.60
10245;DHT22;5167;52.164;10.530;2022-09-27T08:09:58;13.20;68.80
10245;DHT22;5167;52.164;10.530;2022-09-27T08:12:24;13.20;69.40
10245;DHT22;5167;52.164;10.530;2022-09-27T08:14:50;13.30;71.40
10245;DHT22;5167;52.164;10.530;2022-09-27T08:17:17;13.30;74.60
10245;DHT22;5167;52.164;10.530;2022-09-27T08:19:43;13.40;75.80
10245;DHT22;5167;52.164;10.530;2022-09-27T08:22:10;13.40;78.80
10245;DHT22;5167;52.164;10.530;2022-09-27T08:24:38;13.40;80.30
10245;DHT22;5167;52.164;10.530;2022-09-27T08:27:04;13.50;82.90
10245;DHT22;5167;52.164;10.530;2022-09-27T08:29:32;13.60;86.20
10245;DHT22;5167;52.164;10.530;2022-09-27T08:31:58;13.70;88.20
10245;DHT22;5167;52.164;10.530;2022-09-27T08:34:23;13.60;87.60
10245;DHT22;5167;52.164;10.530;2022-09-27T08:36:49;13.60;87.20
10245;DHT22;5167;52.164;10.530;2022-09-27T08:39:15;13.70;87.00
10245;DHT22;5167;52.164;10.530;2022-09-27T08:52:47;13.50;83.60
10245;DHT22;5167;52.164;10.530;2022-09-27T08:55:23;13.60;83.50
10245;DHT22;5167;52.164;10.530;2022-09-27T08:57:55;13.60;83.00
10245;DHT22;5167;52.164;10.530;2022-09-27T09:00:21;13.60;82.60
10245;DHT22;5167;52.164;10.530;2022-09-27T09:02:48;13.60;80.40
10245;DHT22;5167;52.164;10.530;2022-09-27T09:05:26;13.60;79.50
10245;DHT22;5167;52.164;10.530;2022-09-27T09:10:52;13.50;75.00
10245;DHT22;5167;52.164;10.530;2022-09-27T09:13:51;13.40;72.50
10245;DHT22;5167;52.164;10.530;2022-09-27T09:17:21;13.40;73.20
10245;DHT22;5167;52.164;10.530;2022-09-27T09:22:21;13.30;76.60
10245;DHT22;5167;52.164;10.530;2022-09-27T09:25:30;13.20;75.80
10245;DHT22;5167;52.164;10.530;2022-09-27T09:36:33;13.20;78.00
10245;DHT22;5167;52.164;10.530;2022-09-27T09:39:04;13.20;78.80
10245;DHT22;5167;52.164;10.530;2022-09-27T09:44:04;13.30;81.20
10245;DHT22;5167;52.164;10.530;2022-09-27T09:46:39;13.30;81.90
10245;DHT22;5167;52.164;10.530;2022-09-27T09:49:23;13.30;83.20
10245;DHT22;5167;52.164;10.530;2022-09-27T09:51:54;13.40;86.70
10245;DHT22;5167;52.164;10.530;2022-09-27T09:54:35;13.50;83.00
10245;DHT22;5167;52.164;10.530;2022-09-27T09:57:09;13.60;84.10
10245;DHT22;5167;52.164;10.530;2022-09-27T09:59:43;13.60;84.20
10245;DHT22;5167;52.164;10.530;2022-09-27T10:02:34;13.70;83.50
10245;DHT22;5167;52.164;10.530;2022-09-27T10:05:00;13.90;79.50
10245;DHT22;5167;52.164;10.530;2022-09-27T10:07:27;13.90;77.20
10245;DHT22;5167;52.164;10.530;2022-09-27T10:09:56;13.90;73.50
10245;DHT22;5167;52.164;10.530;2022-09-27T10:12:24;13.90;72.20
10245;DHT22;5167;52.164;10.530;2022-09-27T10:14:52;14.00;69.40
10245;DHT22;5167;52.164;10.530;2022-09-27T10:17:22;13.90;63.00
10245;DHT22;5167;52.164;10.530;2022-09-27T10:19:49;13.90;62.60
10245;DHT22;5167;52.164;10.530;2022-09-27T10:22:32;14.00;61.50
10245;DHT22;5167;52.164;10.530;2022-09-27T10:25:03;13.90;59.40
10245;DHT22;5167;52.164;10.530;2022-09-27T10:27:40;14.00;58.70
10245;DHT22;5167;52.164;10.530;2022-09-27T10:30:21;14.10;56.90
10245;DHT22;5167;52.164;10.530;2022-09-27T10:32:50;14.00;53.10
10245;DHT22;5167;52.164;10.530;2022-09-27T10:38:28;14.30;53.90
10245;DHT22;5167;52.164;10.530;2022-09-27T10:40:55;14.40;51.80
10245;DHT22;5167;52.164;10.530;2022-09-27T10:43:35;14.50;45.30
10245;DHT22;5167;52.164;10.530;2022-09-27T10:46:19;14.50;44.50
10245;DHT22;5167;52.164;10.530;2022-09-27T10:48:46;14.60;44.70
10245;DHT22;5167;52.164;10.530;2022-09-27T10:51:29;14.70;43.80
10245;DHT22;5167;52.164;10.530;2022-09-27T10:53:56;14.80;42.00
10245;DHT22;5167;52.164;10.530;2022-09-27T10:56:32;14.80;40.80
10245;DHT22;5167;52.164;10.530;2022-09-27T10:58:59;14.90;40.40
10245;DHT22;5167;52.164;10.530;2022-09-27T11:01:26;14.80;38.30
10245;DHT22;5167;52.164;10.530;2022-09-27T11:04:03;14.80;38.00
10245;DHT22;5167;52.164;10.530;2022-09-27T11:06:31;14.80;38.30
10245;DHT22;5167;52.164;10.530;2022-09-27T11:09:21;14.80;37.30
10245;DHT22;5167;52.164;10.530;2022-09-27T11:12:04;14.80;37.10
10245;DHT22;5167;52.164;10.530;2022-09-27T11:14:29;14.70;37.60
10245;DHT22;5167;52.164;10.530;2022-09-27T11:17:17;14.70;37.30
10245;DHT22;5167;52.164;10.530;2022-09-27T11:22:42;14.60;38.00
10245;DHT22;5167;52.164;10.530;2022-09-27T11:25:19;14.70;38.90
10245;DHT22;5167;52.164;10.530;2022-09-27T11:28:14;14.70;35.30
10245;DHT22;5167;52.164;10.530;2022-09-27T11:31:01;14.70;35.10
10245;DHT22;5167;52.164;10.530;2022-09-27T11:34:37;14.80;34.50
10245;DHT22;5167;52.164;10.530;2022-09-27T11:44:18;15.20;28.50
10245;DHT22;5167;52.164;10.530;2022-09-27T11:50:16;15.30;28.40
10245;DHT22;5167;52.164;10.530;2022-09-27T11:55:38;15.50;24.80
10245;DHT22;5167;52.164;10.530;2022-09-27T11:58:29;15.60;21.50
10245;DHT22;5167;52.164;10.530;2022-09-27T12:03:59;15.60;22.90
10245;DHT22;5167;52.164;10.530;2022-09-27T12:09:31;15.80;20.50
10245;DHT22;5167;52.164;10.530;2022-09-27T12:12:16;15.80;19.00
10245;DHT22;5167;52.164;10.530;2022-09-27T12:14:55;15.80;18.00
10245;DHT22;5167;52.164;10.530;2022-09-27T12:17:26;15.80;17.70
10245;DHT22;5167;52.164;10.530;2022-09-27T12:19:55;15.80;18.30
10245;DHT22;5167;52.164;10.530;2022-09-27T12:22:31;15.80;19.30
10245;DHT22;5167;52.164;10.530;2022-09-27T12:24:57;15.70;20.80
10245;DHT22;5167;52.164;10.530;2022-09-27T12:27:55;15.70;21.50
10245;DHT22;5167;52.164;10.530;2022-09-27T12:30:22;15.70;22.60
10245;DHT22;5167;52.164;10.530;2022-09-27T12:33:03;15.70;22.40
10245;DHT22;5167;52.164;10.530;2022-09-27T12:35:35;15.60;22.10
10245;DHT22;5167;52.164;10.530;2022-09-27T12:38:52;15.60;22.10
10245;DHT22;5167;52.164;10.530;2022-09-27T12:40:59;15.60;22.50
10245;DHT22;5167;52.164;10.530;2022-09-27T12:43:29;15.80;23.80
10245;DHT22;5167;52.164;10.530;2022-09-27T12:48:55;15.90;23.70
10245;DHT22;5167;52.164;10.530;2022-09-27T12:51:22;15.90;21.60
10245;DHT22;5167;52.164;10.530;2022-09-27T13:13:17;15.70;10.50
10245;DHT22;5167;52.164;10.530;2022-09-27T13:15:44;15.60;11.50
10245;DHT22;5167;52.164;10.530;2022-09-27T13:24:45;15.70;12.00
10245;DHT22;5167;52.164;10.530;2022-09-27T13:32:36;15.60;11.90
10245;DHT22;5167;52.164;10.530;2022-09-27T13:35:19;15.50;10.90
10245;DHT22;5167;52.164;10.530;2022-09-27T13:45:50;15.30;11.20
10245;DHT22;5167;52.164;10.530;2022-09-27T13:53:58;15.00;13.50
10245;DHT22;5167;52.164;10.530;2022-09-27T13:59:10;15.00;14.00
10245;DHT22;5167;52.164;10.530;2022-09-27T14:01:45;15.00;14.40
10245;DHT22;5167;52.164;10.530;2022-09-27T14:04:26;14.90;14.10
10245;DHT22;5167;52.164;10.530;2022-09-27T14:06:59;14.80;12.40
10245;DHT22;5167;52.164;10.530;2022-09-27T14:11:55;14.80;14.50
10245;DHT22;5167;52.164;10.530;2022-09-27T14:14:24;14.80;14.80
10245;DHT22;5167;52.164;10.530;2022-09-27T14:16:50;14.70;14.80
10245;DHT22;5167;52.164;10.530;2022-09-27T14:19:22;14.80;15.50
10245;DHT22;5167;52.164;10.530;2022-09-27T14:21:50;14.80;15.30
10245;DHT22;5167;52.164;10.530;2022-09-27T14:27:10;14.80;15.40
10245;DHT22;5167;52.164;10.530;2022-09-27T14:32:12;14.80;15.20
10245;DHT22;5167;52.164;10.530;2022-09-27T14:34:38;14.90;15.40
10245;DHT22;5167;52.164;10.530;2022-09-27T14:37:04;14.90;15.40
10245;DHT22;5167;52.164;10.530;2022-09-27T14:40:06;15.00;16.50
10245;DHT22;5167;52.164;10.530;2022-09-27T14:42:43;15.10;16.20
10245;DHT22;5167;52.164;10.530;2022-09-27T14:45:21;15.00;16.40
10245;DHT22;5167;52.164;10.530;2022-09-27T14:47:49;15.00;16.80
10245;DHT22;5167;52.164;10.530;2022-09-27T14:50:22;15.00;18.20
10245;DHT22;5167;52.164;10.530;2022-09-27T14:52:49;14.90;19.70
10245;DHT22;5167;52.164;10.530;2022-09-27T14:55:21;14.80;21.10
10245;DHT22;5167;52.164;10.530;2022-09-27T14:57:52;14.70;22.10
10245;DHT22;5167;52.164;10.530;2022-09-27T15:00:24;14.60;22.40
10245;DHT22;5167;52.164;10.530;2022-09-27T15:02:53;14.50;24.80
10245;DHT22;5167;52.164;10.530;2022-09-27T15:05:25;14.40;25.60
10245;DHT22;5167;52.164;10.530;2022-09-27T15:07:51;14.20;26.70
10245;DHT22;5167;52.164;10.530;2022-09-27T15:10:22;14.20;27.50
10245;DHT22;5167;52.164;10.530;2022-09-27T15:12:53;14.10;28.60
10245;DHT22;5167;52.164;10.530;2022-09-27T15:15:24;13.90;29.00
10245;DHT22;5167;52.164;10.530;2022-09-27T15:17:50;13.80;29.90
10245;DHT22;5167;52.164;10.530;2022-09-27T15:20:31;13.80;29.90
10245;DHT22;5167;52.164;10.530;2022-09-27T15:22:59;13.60;30.70
10245;DHT22;5167;52.164;10.530;2022-09-27T15:28:05;13.50;32.00
10245;DHT22;5167;52.164;10.530;2022-09-27T15:30:37;13.40;32.20
10245;DHT22;5167;52.164;10.530;2022-09-27T15:33:04;13.30;33.10
10245;DHT22;5167;52.164;10.530;2022-09-27T15:35:33;13.30;33.00
10245;DHT22;5167;52.164;10.530;2022-09-27T15:43:19;13.10;33.90
10245;DHT22;5167;52.164;10.530;2022-09-27T15:45:51;13.10;35.20
10245;DHT22;5167;52.164;10.530;2022-09-27T15:48:20;13.00;35.40
10245;DHT22;5167;52.164;10.530;2022-09-27T15:50:47;13.00;35.10
10245;DHT22;5167;52.164;10.530;2022-09-27T15:55:58;13.10;36.90
10245;DHT22;5167;52.164;10.530;2022-09-27T15:58:23;13.10;36.60
10245;DHT22;5167;52.164;10.530;2022-09-27T16:03:19;13.10;38.10
10245;DHT22;5167;52.164;10.530;2022-09-27T16:05:45;13.00;38.20
10245;DHT22;5167;52.164;10.530;2022-09-27T16:08:10;13.00;39.40
10245;DHT22;5167;52.164;10.530;2022-09-27T16:10:38;13.00;39.90
10245;DHT22;5167;52.164;10.530;2022-09-27T16:13:05;13.10;40.00
10245;DHT22;5167;52.164;10.530;2022-09-27T16:15:31;13.10;40.60
10245;DHT22;5167;52.164;10.530;2022-09-27T16:17:56;13.00;41.10
10245;DHT22;5167;52.164;10.530;2022-09-27T16:20:25;13.10;40.80
10245;DHT22;5167;52.164;10.530;2022-09-27T16:22:52;13.00;41.20
10245;DHT22;5167;52.164;10.530;2022-09-27T16:25:19;13.00;41.70
10245;DHT22;5167;52.164;10.530;2022-09-27T16:27:45;13.10;41.80
10245;DHT22;5167;52.164;10.530;2022-09-27T16:30:11;13.00;41.20
10245;DHT22;5167;52.164;10.530;2022-09-27T16:32:45;13.20;41.60
10245;DHT22;5167;52.164;10.530;2022-09-27T16:35:12;13.10;41.70
10245;DHT22;5167;52.164;10.530;2022-09-27T16:37:37;13.00;40.20
10245;DHT22;5167;52.164;10.530;2022-09-27T16:40:05;13.00;40.20
10245;DHT22;5167;52.164;10.530;2022-09-27T16:42:31;12.90;40.30
10245;DHT22;5167;52.164;10.530;2022-09-27T16:44:56;12.90;40.30
10245;DHT22;5167;52.164;10.530;2022-09-27T16:47:22;12.90;40.20
10245;DHT22;5167;52.164;10.530;2022-09-27T16:49:47;12.80;40.00
10245;DHT22;5167;52.164;10.530;2022-09-27T16:52:35;12.80;40.60
10245;DHT22;5167;52.164;10.530;2022-09-27T16:55:00;12.80;41.20
10245;DHT22;5167;52.164;10.530;2022-09-27T16:57:26;12.80;39.90
10245;DHT22;5167;52.164;10.530;2022-09-27T16:59:57;12.70;40.60
10245;DHT22;5167;52.164;10.530;2022-09-27T17:02:23;12.70;41.00
10245;DHT22;5167;52.164;10.530;2022-09-27T17:04:50;12.70;40.50
10245;DHT22;5167;52.164;10.530;2022-09-27T17:07:16;12.60;41.70
10245;DHT22;5167;52.164;10.530;2022-09-27T17:09:42;12.60;39.40
10245;DHT22;5167;52.164;10.530;2022-09-27T17:12:07;12.70;41.20
10245;DHT22;5167;52.164;10.530;2022-09-27T17:14:33;12.70;40.70
10245;DHT22;5167;52.164;10.530;2022-09-27T17:16:58;12.70;40.90
10245;DHT22;5167;52.164;10.530;2022-09-27T17:19:24;12.70;41.00
10245;DHT22;5167;52.164;10.530;2022-09-27T17:21:50;12.70;41.80
10245;DHT22;5167;52.164;10.530;2022-09-27T17:24:16;12.60;40.00
10245;DHT22;5167;52.164;10.530;2022-09-27T17:26:42;12.70;40.50
10245;DHT22;5167;52.164;10.530;2022-09-27T17:29:11;12.70;40.50
10245;DHT22;5167;52.164;10.530;2022-09-27T17:31:38;12.70;42.50
10245;DHT22;5167;52.164;10.530;2022-09-27T17:34:05;12.60;42.80
10245;DHT22;5167;52.164;10.530;2022-09-27T17:36:31;12.70;43.70
10245;DHT22;5167;52.164;10.530;2022-09-27T17:38:59;12.60;41.50
10245;DHT22;5167;52.164;10.530;2022-09-27T17:41:27;12.60;42.60
10245;DHT22;5167;52.164;10.530;2022-09-27T17:43:58;12.70;42.40
10245;DHT22;5167;52.164;10.530;2022-09-27T17:46:32;12.70;42.40
10245;DHT22;5167;52.164;10.530;2022-09-27T17:48:58;12.70;41.80
10245;DHT22;5167;52.164;10.530;2022-09-27T17:51:46;12.60;41.90
10245;DHT22;5167;52.164;10.530;2022-09-27T17:54:13;12.70;43.00
10245;DHT22;5167;52.164;10.530;2022-09-27T17:56:41;12.60;42.10
10245;DHT22;5167;52.164;10.530;2022-09-27T17:59:08;12.60;42.90
10245;DHT22;5167;52.164;10.530;2022-09-27T18:01:35;12.60;42.70
10245;DHT22;5167;52.164;10.530;2022-09-27T18:04:03;12.60;43.10
10245;DHT22;5167;52.164;10.530;2022-09-27T18:06:29;12.60;41.60
10245;DHT22;5167;52.164;10.530;2022-09-27T18:08:55;12.50;42.30
10245;DHT22;5167;52.164;10.530;2022-09-27T18:11:23;12.60;43.80
10245;DHT22;5167;52.164;10.530;2022-09-27T18:13:54;12.60;42.80
10245;DHT22;5167;52.164;10.530;2022-09-27T18:16:21;12.60;42.60
10245;DHT22;5167;52.164;10.530;2022-09-27T18:18:53;12.60;41.70
10245;DHT22;5167;52.164;10.530;2022-09-27T18:21:20;12.60;42.40
10245;DHT22;5167;52.164;10.530;2022-09-27T18:23:48;12.60;43.30
10245;DHT22;5167;52.164;10.530;2022-09-27T18:26:16;12.60;43.10
10245;DHT22;5167;52.164;10.530;2022-09-27T18:28:43;12.50;43.20
10245;DHT22;5167;52.164;10.530;2022-09-27T18:31:11;12.50;43.60
10245;DHT22;5167;52.164;10.530;2022-09-27T18:33:37;12.50;43.50
10245;DHT22;5167;52.164;10.530;2022-09-27T18:36:06;12.40;43.30
10245;DHT22;5167;52.164;10.530;2022-09-27T18:38:33;12.50;43.10
10245;DHT22;5167;52.164;10.530;2022-09-27T18:41:12;12.50;41.90